Boas Novas, Brazil
Current Conditions -  °F | °C
As of 8:00 AM on Thursday 18 Dec 2014 (Local Time) from SBRF Reporting Station
Broken Clouds Broken Clouds  
Wind Chill: 82°   Ceiling: 10000
Heat Index: 88°   Visibility: 6mi
Dew Point: 73°   Wind: 8mph
Humidity: 74%   Direction: 40°NE
Pressure: 29.91"   Gusts: NA
Location:  8.38°S, 35.87°W
Report Text: SBRF 181100Z 04007KT 9999 FEW020 BKN100 28/23 Q1013
Loading
Personal Weather Stations






























Interactive Weather Map New forecast layout! Learn more

10-Day Weather Forecast

Advertisements
Track Severe Weather on mobile